Finlayson, MN (55735)

6:42 PM CST on February 21, 2018 (GMT -0600)
RiverLand | | Change Station
Active Advisory: Winter Weather Advisory

Elev 1115 ft 46.29 °N, 92.96 °W | Updated 2 minutes ago

Clear
Clear
11.8 °F
Feels Like 12 °F
N
0.0
Wind Variable Wind from West
Gusts 1.0 mph

Today
High -- | Low -- °F
--% Chance of Precip.
Yesterday
High -- | Low -- °F
Precip. -- in
Pressure 30.60 in
Visibility 10.0 miles
Clouds Clear
Windchill 12 °F
Dew Point 2 °F
Humidity 63%
Rainfall 0.00 in
Snow Depth Not available.
7:04 AM 5:46 PM
Waxing Crescent, 36% visible
METAR K04W 220035Z AUTO 17005KT 10SM CLR M10/M17 A3060 RMK AO2
Pressure 30.60 in
Visibility 10.0 miles
Clouds Clear
Windchill 12 °F
Dew Point 2 °F
Humidity 63%
Rainfall 0.00 in
Snow Depth Not available.
7:04 AM 5:46 PM
Waxing Crescent, 36% visible
METAR K04W 220035Z AUTO 17005KT 10SM CLR M10/M17 A3060 RMK AO2

Get Your Daily Forecast Email!

Thanks for signing up!

Be on the lookout for a verification email in your inbox.

You'll start receiving severe weather alerts in your inbox..

×

10-Day Weather Forecast

Almanac

Astronomy

Feb. 21, 2018 Rise Set
Actual Time
Civil Twilight
Nautical Twilight
Astronomical Twilight
Moon
Length of Visible Light
Length of Day
Tomorrow will be .
, % of the Moon is Illuminated

Today's Extremes

State Highs State Lows

Community

WunderPhotos

Category 6

Welcome to Category 6. This is the collective home for Weather Underground's featured writeups by Dr. Jeff Masters (right), Bob Henson (left), Chris Burt, and other regular contributors.

Nearby

Air Quality

  Air Quality AQ Index Pollutant
Not available.

Snow Depth

Station Depth Elevation

Earthquake Activity

City Distance Mag. Time & Date
Minimum magnitude displayed is 2.5.

Coastal Water Temperatures

Place Temperature

Stations

Nearby Weather Stations

Station Location Temp. Windchill Dew Point Humidity Wind Precip. Elev Updated Type
                   

Watches & Warnings

Winter Weather Advisory
Issued: 2:54 PM CST Feb. 21, 2018 – National Weather Service

... Winter Weather Advisory in effect from 3 PM Thursday to noon
CST Friday...

* what... mixed precipitation is expected. Snow accumulation of 3
to 6 inches and ice accumulation of a light glaze up to a few
hundredths of an inch are expected.

* Where... portions of east central and north central Minnesota.

* When... from 3 PM Thursday to noon CST Friday.

* Additional details... plan on slippery Road conditions. Be
prepared for reduced visibilities at times.

Precautionary/preparedness actions...

A Winter Weather Advisory means that periods of snow, sleet or
freezing rain will cause travel difficulties. Be prepared for
slippery roads and limited visibilities, and use caution while
driving. The latest Road conditions for Minnesota can be found at
511mn.Org, and for Wisconsin at 511wi.Gov, or by calling 511 in
either state.